Time;durP1;ratioP1;P1;durP2;ratioP2;P2;SDS_P1;SDS_P2;PMS_P1;PMS_P2;Temp;Humidity;BMP_temperature;BMP_pressure;BME280_temperature;BME280_humidity;BME280_pressure;Samples;Min_cycle;Max_cycle;Signal;HPM_P1;HPM_P2
2023/10/05 04:01:51;;;;;;;;;;;12.10;99.90;;;;;;5321997;23;19921;-66
2023/10/05 04:04:16;;;;;;;;;;;12.20;99.90;;;;;;5012784;28;19915;-64
2023/10/05 04:06:42;;;;;;;;;;;12.20;99.90;;;;;;4995481;28;19906;-66
2023/10/05 04:09:15;;;;;;;;;;;12.00;99.90;;;;;;4995782;28;20271;-66
2023/10/05 04:11:42;;;;;;;;;;;12.20;99.90;;;;;;4983708;28;19906;-67
2023/10/05 04:14:08;;;;;;;;;;;12.30;99.90;;;;;;4974784;28;19972;-66
2023/10/05 04:16:34;;;;;;;;;;;12.20;99.90;;;;;;4976030;28;20360;-66
2023/10/05 04:19:03;;;;;;;;;;;12.10;99.90;;;;;;4993670;28;19912;-66
2023/10/05 04:21:29;;;;;;;;;;;12.10;99.90;;;;;;4995471;28;19944;-68
2023/10/05 04:23:58;;;;;;;;;;;12.20;99.90;;;;;;4995189;28;19906;-66
2023/10/05 04:26:32;;;;;;;;;;;12.10;99.90;;;;;;4995179;28;19964;-67
2023/10/05 04:28:59;;;;;;;;;;;12.10;99.90;;;;;;4994923;28;19905;-66
2023/10/05 04:31:25;;;;;;;;;;;12.10;99.90;;;;;;4992491;28;19936;-65
2023/10/05 04:33:57;;;;;;;;;;;12.10;99.90;;;;;;4994974;28;20275;-66
2023/10/05 04:36:23;;;;;;;;;;;12.10;99.90;;;;;;4995033;28;20292;-66
2023/10/05 04:38:50;;;;;;;;;;;12.10;99.90;;;;;;4995410;28;20020;-67
2023/10/05 04:41:19;;;;;;;;;;;12.00;99.90;;;;;;4995015;28;20380;-68
2023/10/05 04:43:45;;;;;;;;;;;12.00;99.90;;;;;;4995219;28;20048;-69
2023/10/05 04:46:10;;;;;;;;;;;12.10;99.90;;;;;;4994886;28;19905;-67
2023/10/05 04:48:38;;;;;;;;;;;12.10;99.90;;;;;;4994540;28;20391;-67
2023/10/05 04:51:05;;;;;;;;;;;12.10;99.90;;;;;;4979608;28;20361;-67
2023/10/05 04:53:32;;;;;;;;;;;12.00;99.90;;;;;;4975268;28;19989;-68
2023/10/05 04:56:10;;;;;;;;;;;12.00;99.90;;;;;;4980408;28;20400;-68
2023/10/05 04:59:18;;;;;;;;;;;12.00;99.90;;;;;;4993111;28;19910;-65
2023/10/05 05:04:27;;;;;;;;;;;11.90;99.90;;;;;;4994925;28;19996;-66
2023/10/05 05:06:53;;;;;;;;;;;11.80;99.90;;;;;;4974068;28;19913;-67
2023/10/05 05:09:21;;;;;;;;;;;11.70;99.90;;;;;;4977525;28;19925;-67
2023/10/05 05:11:47;;;;;;;;;;;11.50;99.90;;;;;;4993117;28;19910;-68
2023/10/05 05:14:12;;;;;;;;;;;11.60;99.90;;;;;;4994798;28;19906;-67
2023/10/05 05:16:40;;;;;;;;;;;11.60;99.90;;;;;;4994690;28;19948;-67
2023/10/05 05:19:06;;;;;;;;;;;11.60;99.90;;;;;;4993024;28;20365;-68
2023/10/05 05:21:34;;;;;;;;;;;11.60;99.90;;;;;;4994092;28;19910;-67
2023/10/05 05:24:00;;;;;;;;;;;11.70;99.90;;;;;;4994155;28;19905;-67
2023/10/05 05:26:25;;;;;;;;;;;11.70;99.90;;;;;;4992980;28;20435;-67
2023/10/05 05:28:52;;;;;;;;;;;11.70;99.90;;;;;;4994420;28;19917;-68
2023/10/05 05:31:17;;;;;;;;;;;11.40;99.90;;;;;;4994118;28;19916;-67
2023/10/05 05:33:44;;;;;;;;;;;11.30;99.90;;;;;;4994196;28;19996;-66
2023/10/05 05:36:13;;;;;;;;;;;11.30;99.90;;;;;;4992444;28;19971;-67
2023/10/05 05:38:39;;;;;;;;;;;11.30;99.90;;;;;;4994048;28;20070;-67
2023/10/05 05:41:11;;;;;;;;;;;11.30;99.90;;;;;;4994113;28;20349;-67
2023/10/05 05:43:39;;;;;;;;;;;11.30;99.90;;;;;;4994175;28;19906;-68
2023/10/05 05:46:09;;;;;;;;;;;11.50;99.90;;;;;;4994004;28;20261;-67
2023/10/05 05:48:35;;;;;;;;;;;11.50;99.90;;;;;;4995764;28;20356;-66
2023/10/05 05:51:06;;;;;;;;;;;11.60;99.90;;;;;;4998070;28;20061;-66
2023/10/05 05:53:32;;;;;;;;;;;11.60;99.90;;;;;;4998113;28;20012;-66
2023/10/05 05:56:01;;;;;;;;;;;11.50;99.90;;;;;;4998476;28;20075;-67
2023/10/05 05:58:26;;;;;;;;;;;11.50;99.90;;;;;;4998476;28;20043;-66
2023/10/05 06:00:52;;;;;;;;;;;11.50;99.90;;;;;;4996676;28;20375;-67
2023/10/05 06:03:18;;;;;;;;;;;11.50;99.90;;;;;;4997758;28;20383;-66
2023/10/05 06:05:43;;;;;;;;;;;11.60;99.90;;;;;;4997811;28;19933;-67
2023/10/05 06:08:11;;;;;;;;;;;11.70;99.90;;;;;;4997865;28;19909;-68
2023/10/05 06:10:36;;;;;;;;;;;11.70;99.90;;;;;;4997641;28;20000;-68
2023/10/05 06:13:05;;;;;;;;;;;11.80;99.90;;;;;;4998794;28;19948;-65
2023/10/05 06:15:30;;;;;;;;;;;11.80;99.90;;;;;;4998745;28;19905;-65
2023/10/05 06:17:55;;;;;;;;;;;11.90;99.90;;;;;;4998899;28;20257;-66
2023/10/05 06:20:21;;;;;;;;;;;11.90;99.90;;;;;;4998395;28;20352;-66
2023/10/05 06:22:49;;;;;;;;;;;11.90;99.90;;;;;;4998307;28;20348;-65
2023/10/05 06:25:15;;;;;;;;;;;11.80;99.90;;;;;;4997511;28;19905;-65
2023/10/05 06:27:43;;;;;;;;;;;11.70;99.90;;;;;;4998005;28;20418;-65
2023/10/05 06:30:09;;;;;;;;;;;11.70;99.90;;;;;;4997441;28;19906;-66
2023/10/05 06:32:35;;;;;;;;;;;11.70;99.90;;;;;;4997417;28;19913;-66
2023/10/05 06:35:00;;;;;;;;;;;11.70;99.90;;;;;;4997064;28;19933;-66
2023/10/05 06:37:26;;;;;;;;;;;11.70;99.90;;;;;;4996999;28;19964;-65
2023/10/05 06:39:55;;;;;;;;;;;11.70;99.90;;;;;;4997466;28;19913;-66
2023/10/05 06:42:20;;;;;;;;;;;11.70;99.90;;;;;;4995847;28;19906;-66
2023/10/05 06:44:46;;;;;;;;;;;11.80;99.90;;;;;;4997407;28;19906;-66
2023/10/05 06:49:56;;;;;;;;;;;11.90;99.90;;;;;;4996834;28;20373;-65
2023/10/05 06:52:22;;;;;;;;;;;11.90;99.90;;;;;;4996879;28;19905;-65
2023/10/05 06:54:47;;;;;;;;;;;12.00;99.90;;;;;;4996859;28;20261;-65
2023/10/05 06:57:13;;;;;;;;;;;12.10;99.90;;;;;;4996972;28;20008;-65
2023/10/05 06:59:42;;;;;;;;;;;12.20;99.90;;;;;;4995836;28;19921;-65
2023/10/05 07:02:08;;;;;;;;;;;12.30;99.90;;;;;;4996489;28;20291;-66
2023/10/05 07:04:33;;;;;;;;;;;12.40;99.90;;;;;;4996396;28;20266;-65
2023/10/05 07:06:59;;;;;;;;;;;12.50;99.90;;;;;;4996462;28;19925;-65
2023/10/05 07:09:26;;;;;;;;;;;12.40;99.90;;;;;;4996313;28;19905;-66
2023/10/05 07:11:52;;;;;;;;;;;12.50;99.90;;;;;;4996422;28;19996;-65
2023/10/05 07:14:19;;;;;;;;;;;12.60;99.90;;;;;;4996379;28;19964;-65
2023/10/05 07:16:45;;;;;;;;;;;12.60;99.90;;;;;;4996335;28;19917;-65
2023/10/05 07:19:11;;;;;;;;;;;12.60;99.90;;;;;;4996100;28;19925;-65
2023/10/05 07:21:36;;;;;;;;;;;12.70;99.90;;;;;;4996363;28;19910;-65
2023/10/05 07:24:04;;;;;;;;;;;12.80;99.90;;;;;;4996581;28;19921;-65
2023/10/05 07:26:29;;;;;;;;;;;12.80;99.90;;;;;;4996530;28;19944;-65
2023/10/05 07:28:55;;;;;;;;;;;12.90;99.90;;;;;;4996403;28;19909;-65
2023/10/05 07:31:22;;;;;;;;;;;13.00;99.90;;;;;;4995668;28;20276;-65
2023/10/05 07:33:48;;;;;;;;;;;13.10;99.90;;;;;;4997255;28;19939;-65
2023/10/05 07:36:14;;;;;;;;;;;13.10;99.90;;;;;;4997326;28;19916;-64
2023/10/05 07:38:40;;;;;;;;;;;13.20;99.90;;;;;;4996688;28;19937;-65
2023/10/05 07:41:07;;;;;;;;;;;13.20;99.90;;;;;;4996298;28;19981;-64
2023/10/05 07:43:34;;;;;;;;;;;13.30;99.90;;;;;;4996352;28;19905;-65
2023/10/05 07:46:00;;;;;;;;;;;13.30;99.90;;;;;;4996096;28;20003;-65
2023/10/05 07:48:26;;;;;;;;;;;13.40;99.90;;;;;;4996098;28;20092;-65
2023/10/05 07:50:51;;;;;;;;;;;13.50;99.90;;;;;;4994318;28;20327;-65
2023/10/05 07:53:17;;;;;;;;;;;13.50;99.90;;;;;;4995900;28;19906;-65
2023/10/05 07:55:42;;;;;;;;;;;13.50;99.90;;;;;;4995612;28;19906;-66
2023/10/05 07:58:08;;;;;;;;;;;13.60;99.90;;;;;;4996003;28;19913;-66
2023/10/05 08:00:33;;;;;;;;;;;13.60;99.90;;;;;;4994148;28;19941;-66
2023/10/05 08:02:59;;;;;;;;;;;13.80;99.90;;;;;;4995789;28;19912;-65
2023/10/05 08:05:24;;;;;;;;;;;13.90;99.90;;;;;;4995283;28;20272;-66
2023/10/05 08:07:50;;;;;;;;;;;13.90;99.90;;;;;;4995595;28;19993;-65
2023/10/05 08:10:15;;;;;;;;;;;14.00;99.90;;;;;;4995256;28;19924;-66
2023/10/05 08:12:42;;;;;;;;;;;14.10;99.90;;;;;;4994858;28;19906;-65
2023/10/05 08:15:08;;;;;;;;;;;14.20;99.90;;;;;;4995398;28;20360;-65
2023/10/05 08:17:33;;;;;;;;;;;14.30;99.90;;;;;;4995372;28;19982;-65
2023/10/05 08:19:59;;;;;;;;;;;14.40;99.90;;;;;;4995592;28;19995;-65
2023/10/05 08:22:24;;;;;;;;;;;14.50;99.90;;;;;;4995768;28;19910;-65
2023/10/05 08:24:52;;;;;;;;;;;14.60;99.90;;;;;;4995561;28;19912;-65
2023/10/05 08:27:18;;;;;;;;;;;14.70;99.90;;;;;;4995507;28;19906;-65
2023/10/05 08:29:44;;;;;;;;;;;14.70;99.90;;;;;;4994888;28;20456;-65
2023/10/05 08:32:17;;;;;;;;;;;14.70;99.90;;;;;;5091024;27;20285;-65
2023/10/05 08:34:45;;;;;;;;;;;14.80;99.90;;;;;;5090850;28;20010;-65
2023/10/05 08:37:13;;;;;;;;;;;14.90;99.90;;;;;;5090848;28;19966;-64
2023/10/05 08:39:38;;;;;;;;;;;15.00;99.90;;;;;;5091117;28;19999;-67
2023/10/05 08:42:07;;;;;;;;;;;15.10;99.90;;;;;;5090727;28;19966;-63
2023/10/05 08:44:45;;;;;;;;;;;15.40;99.90;;;;;;5091229;28;19909;-64
2023/10/05 08:47:12;;;;;;;;;;;15.60;99.90;;;;;;5090003;28;19938;-63
2023/10/05 08:49:38;;;;;;;;;;;15.50;99.90;;;;;;5089337;28;19914;-63
2023/10/05 08:52:13;;;;;;;;;;;15.60;99.90;;;;;;5090632;28;19912;-63
2023/10/05 08:54:38;;;;;;;;;;;15.60;99.90;;;;;;5089441;28;20015;-63
2023/10/05 08:57:10;;;;;;;;;;;15.70;99.90;;;;;;5090664;28;20406;-63
2023/10/05 08:59:36;;;;;;;;;;;15.80;99.90;;;;;;5090524;28;19933;-63
2023/10/05 09:02:02;;;;;;;;;;;15.80;99.90;;;;;;5090454;28;19955;-63
2023/10/05 09:04:43;;;;;;;;;;;15.80;99.90;;;;;;5090059;28;20378;-64
2023/10/05 09:07:09;;;;;;;;;;;15.90;99.90;;;;;;5090328;28;19919;-63
2023/10/05 09:09:38;;;;;;;;;;;16.20;99.90;;;;;;5090207;28;20347;-63
2023/10/05 09:12:34;;;;;;;;;;;16.40;99.90;;;;;;5090079;28;19944;-63
2023/10/05 09:15:36;;;;;;;;;;;16.70;99.90;;;;;;5090455;28;19915;-64
2023/10/05 09:17:58;;;;;;;;;;;16.90;99.90;;;;;;5089978;28;19998;-63
2023/10/05 09:20:24;;;;;;;;;;;17.20;99.90;;;;;;5088717;28;19919;-64
2023/10/05 09:22:51;;;;;;;;;;;17.10;99.90;;;;;;5090102;28;19908;-63
2023/10/05 09:25:22;;;;;;;;;;;17.20;99.90;;;;;;5090111;28;19909;-64
2023/10/05 09:27:51;;;;;;;;;;;17.10;99.90;;;;;;5090215;28;19940;-64
2023/10/05 09:30:21;;;;;;;;;;;17.20;99.90;;;;;;5093480;28;19985;-65
2023/10/05 09:32:46;;;;;;;;;;;17.30;99.90;;;;;;5110251;28;19908;-64
2023/10/05 09:35:24;;;;;;;;;;;17.60;99.90;;;;;;5109882;28;19915;-63
2023/10/05 09:37:50;;;;;;;;;;;17.80;99.90;;;;;;5110279;28;20305;-63
2023/10/05 09:40:16;;;;;;;;;;;17.90;99.90;;;;;;5110285;28;19914;-64
2023/10/05 09:42:43;;;;;;;;;;;18.10;99.90;;;;;;5101699;28;19908;-64
2023/10/05 09:45:11;;;;;;;;;;;18.30;99.90;;;;;;5096453;28;20344;-63
2023/10/05 09:47:37;;;;;;;;;;;18.50;99.90;;;;;;5096519;28;19995;-63
2023/10/05 09:50:10;;;;;;;;;;;18.80;99.90;;;;;;5096551;28;20361;-63
2023/10/05 09:52:38;;;;;;;;;;;19.00;99.90;;;;;;5097036;28;20339;-63
2023/10/05 09:55:05;;;;;;;;;;;19.30;99.90;;;;;;5096615;28;19912;-64
2023/10/05 09:57:57;;;;;;;;;;;19.80;99.90;;;;;;5096819;28;19914;-64
2023/10/05 10:02:54;;;;;;;;;;;21.80;99.10;;;;;;5096329;28;19904;-63
2023/10/05 10:05:26;;;;;;;;;;;22.10;98.30;;;;;;5095732;28;19931;-65
2023/10/05 10:07:54;;;;;;;;;;;22.90;96.90;;;;;;5096273;28;20388;-63
2023/10/05 10:10:20;;;;;;;;;;;23.40;95.90;;;;;;5095600;28;19912;-64
2023/10/05 10:12:46;;;;;;;;;;;24.20;94.60;;;;;;5095724;28;19908;-64
2023/10/05 10:15:25;;;;;;;;;;;24.20;94.20;;;;;;5107238;22;19908;-64
2023/10/05 10:18:06;;;;;;;;;;;24.40;93.60;;;;;;5035884;28;20363;-63
2023/10/05 10:20:35;;;;;;;;;;;24.00;93.80;;;;;;5036013;28;20278;-63
2023/10/05 10:23:21;;;;;;;;;;;23.90;93.70;;;;;;5035712;28;19949;-63
2023/10/05 10:25:50;;;;;;;;;;;23.90;93.30;;;;;;5042979;28;19955;-64
2023/10/05 10:28:16;;;;;;;;;;;23.50;93.80;;;;;;5055480;28;20374;-63
2023/10/05 10:31:08;;;;;;;;;;;22.90;94.00;;;;;;5055425;28;19999;-64
2023/10/05 10:33:35;;;;;;;;;;;22.40;94.70;;;;;;5017443;28;19909;-63
2023/10/05 10:36:04;;;;;;;;;;;22.20;95.40;;;;;;5033361;28;19988;-65
2023/10/05 10:38:29;;;;;;;;;;;22.40;95.10;;;;;;5033504;28;19916;-64
2023/10/05 10:41:07;;;;;;;;;;;22.50;95.10;;;;;;5033354;28;20361;-65
2023/10/05 10:43:33;;;;;;;;;;;22.20;95.20;;;;;;5033781;28;19909;-64
2023/10/05 10:45:59;;;;;;;;;;;21.70;95.60;;;;;;5033032;28;19909;-64
2023/10/05 10:48:29;;;;;;;;;;;21.40;96.30;;;;;;5033019;28;19913;-64
2023/10/05 10:50:59;;;;;;;;;;;20.70;97.10;;;;;;5016490;28;19948;-64
2023/10/05 10:53:27;;;;;;;;;;;20.70;97.30;;;;;;5032893;28;19909;-63
2023/10/05 10:56:17;;;;;;;;;;;20.90;97.20;;;;;;5032907;28;20431;-63
2023/10/05 10:58:44;;;;;;;;;;;21.20;96.60;;;;;;5033572;28;19920;-63
2023/10/05 11:01:28;;;;;;;;;;;21.10;97.00;;;;;;5032896;28;19916;-62
2023/10/05 11:03:55;;;;;;;;;;;21.20;96.90;;;;;;5033152;28;19909;-64
2023/10/05 11:06:26;;;;;;;;;;;21.10;97.00;;;;;;5032856;28;20342;-64
2023/10/05 11:08:51;;;;;;;;;;;20.90;97.30;;;;;;5016232;28;19916;-64
2023/10/05 11:11:19;;;;;;;;;;;20.60;97.40;;;;;;5034980;28;19913;-64
2023/10/05 11:13:45;;;;;;;;;;;20.00;97.90;;;;;;5034846;28;19955;-63
2023/10/05 11:16:11;;;;;;;;;;;19.70;98.40;;;;;;5043742;28;20428;-63
2023/10/05 11:18:57;;;;;;;;;;;19.40;98.30;;;;;;5054963;28;19916;-63
2023/10/05 11:21:25;;;;;;;;;;;19.30;98.90;;;;;;5055580;28;19908;-63
2023/10/05 11:23:57;;;;;;;;;;;19.60;98.40;;;;;;5054707;28;19916;-62
2023/10/05 11:26:27;;;;;;;;;;;19.90;97.80;;;;;;5054796;28;19948;-63
2023/10/05 11:28:56;;;;;;;;;;;20.10;97.70;;;;;;5054240;28;20350;-63
2023/10/05 11:31:26;;;;;;;;;;;20.20;97.70;;;;;;5054056;28;19920;-64
2023/10/05 11:33:53;;;;;;;;;;;20.00;97.20;;;;;;5054403;28;20371;-64
2023/10/05 11:36:33;;;;;;;;;;;20.00;97.40;;;;;;5054793;28;19995;-63
2023/10/05 11:38:59;;;;;;;;;;;20.10;97.00;;;;;;5054472;28;20004;-62
2023/10/05 11:41:25;;;;;;;;;;;20.00;97.00;;;;;;5054140;28;19916;-64
2023/10/05 11:43:55;;;;;;;;;;;19.90;97.50;;;;;;5054333;28;20286;-63
2023/10/05 11:46:24;;;;;;;;;;;20.00;97.60;;;;;;5053546;28;19909;-63
2023/10/05 11:48:51;;;;;;;;;;;20.20;97.50;;;;;;5054419;28;19963;-64
2023/10/05 11:51:19;;;;;;;;;;;20.30;96.90;;;;;;5053050;28;20286;-63
2023/10/05 11:53:50;;;;;;;;;;;20.30;96.80;;;;;;5054255;28;19962;-63
2023/10/05 11:56:17;;;;;;;;;;;20.10;96.90;;;;;;5054572;28;19913;-63
2023/10/05 11:58:44;;;;;;;;;;;19.90;97.40;;;;;;5053977;28;19916;-64
2023/10/05 12:01:10;;;;;;;;;;;19.90;97.70;;;;;;5053772;28;20409;-63
2023/10/05 12:03:43;;;;;;;;;;;19.80;97.90;;;;;;5054236;28;20395;-63
2023/10/05 12:06:11;;;;;;;;;;;19.80;98.00;;;;;;5053798;28;19998;-63
2023/10/05 12:08:36;;;;;;;;;;;19.70;98.00;;;;;;5036101;28;19908;-63
2023/10/05 12:11:02;;;;;;;;;;;19.60;98.00;;;;;;5056093;28;19912;-64
2023/10/05 12:13:28;;;;;;;;;;;19.50;98.10;;;;;;5056235;28;19962;-63
2023/10/05 12:15:54;;;;;;;;;;;19.50;98.00;;;;;;5054267;28;19917;-63
2023/10/05 12:18:19;;;;;;;;;;;19.40;98.40;;;;;;5053520;28;19916;-63
2023/10/05 12:20:46;;;;;;;;;;;19.40;98.40;;;;;;5053624;28;19913;-64
2023/10/05 12:23:14;;;;;;;;;;;19.30;98.40;;;;;;5053798;28;19909;-64
2023/10/05 12:25:44;;;;;;;;;;;19.20;98.70;;;;;;5053169;28;19915;-63
2023/10/05 12:28:11;;;;;;;;;;;19.00;98.80;;;;;;5053513;28;19909;-63
2023/10/05 12:30:37;;;;;;;;;;;19.00;98.90;;;;;;5053006;28;20333;-63
2023/10/05 12:33:09;;;;;;;;;;;18.90;98.80;;;;;;5053180;28;19908;-64
2023/10/05 12:35:36;;;;;;;;;;;18.90;99.00;;;;;;5053384;28;19909;-64
2023/10/05 12:38:06;;;;;;;;;;;18.70;99.40;;;;;;5052043;28;20370;-63
2023/10/05 12:40:41;;;;;;;;;;;18.50;99.70;;;;;;5052117;28;19915;-63
2023/10/05 12:43:15;;;;;;;;;;;18.40;99.90;;;;;;5053169;28;19909;-63
2023/10/05 12:45:40;;;;;;;;;;;18.40;99.60;;;;;;5052990;28;20359;-63
2023/10/05 12:48:06;;;;;;;;;;;18.20;99.90;;;;;;5053404;28;20004;-63
2023/10/05 12:50:32;;;;;;;;;;;18.20;99.90;;;;;;5053446;28;19913;-62
2023/10/05 12:52:58;;;;;;;;;;;18.20;99.90;;;;;;5053447;28;19909;-64
2023/10/05 12:55:26;;;;;;;;;;;18.30;99.90;;;;;;5053275;28;20382;-63
2023/10/05 12:57:52;;;;;;;;;;;18.30;99.90;;;;;;5056749;28;20003;-64
2023/10/05 13:00:22;;;;;;;;;;;18.30;99.80;;;;;;5056210;28;20003;-64
2023/10/05 13:02:52;;;;;;;;;;;18.30;99.90;;;;;;5055000;28;19967;-64
2023/10/05 13:05:18;;;;;;;;;;;18.30;99.90;;;;;;5053519;28;19909;-64
2023/10/05 13:07:46;;;;;;;;;;;18.30;99.90;;;;;;5053609;28;19916;-64
2023/10/05 13:10:21;;;;;;;;;;;18.20;99.90;;;;;;5053151;28;20003;-64
2023/10/05 13:12:50;;;;;;;;;;;18.30;99.90;;;;;;5053343;28;19908;-64
2023/10/05 13:15:19;;;;;;;;;;;18.20;99.90;;;;;;5053195;28;19948;-65
2023/10/05 13:17:46;;;;;;;;;;;18.20;99.90;;;;;;5054544;28;19909;-64
2023/10/05 13:20:14;;;;;;;;;;;18.20;99.90;;;;;;5056702;28;19996;-64
2023/10/05 13:22:44;;;;;;;;;;;18.20;99.90;;;;;;5055451;28;19909;-64
2023/10/05 13:25:10;;;;;;;;;;;18.10;99.90;;;;;;5056664;28;19966;-65
2023/10/05 13:27:36;;;;;;;;;;;18.20;99.90;;;;;;5056567;28;19913;-63
2023/10/05 13:30:03;;;;;;;;;;;18.30;99.90;;;;;;5056630;28;20367;-63
2023/10/05 13:32:31;;;;;;;;;;;18.30;99.90;;;;;;5056217;28;19912;-63
2023/10/05 13:34:57;;;;;;;;;;;18.30;99.90;;;;;;5056677;28;19909;-64
2023/10/05 13:37:22;;;;;;;;;;;18.30;99.90;;;;;;5056799;28;20319;-63
2023/10/05 13:39:48;;;;;;;;;;;18.30;99.90;;;;;;5056919;28;19948;-65
2023/10/05 13:42:25;;;;;;;;;;;18.30;99.90;;;;;;5056679;28;19909;-64
2023/10/05 13:44:51;;;;;;;;;;;18.40;99.90;;;;;;5056279;28;19908;-64
2023/10/05 13:47:17;;;;;;;;;;;18.40;99.90;;;;;;5074255;28;19915;-64
2023/10/05 13:49:51;;;;;;;;;;;18.50;99.90;;;;;;5076510;28;19912;-64
2023/10/05 13:52:20;;;;;;;;;;;18.60;99.90;;;;;;5075993;28;19912;-64
2023/10/05 13:54:46;;;;;;;;;;;18.50;99.90;;;;;;5076412;28;19912;-65
2023/10/05 13:57:13;;;;;;;;;;;18.50;99.90;;;;;;5057843;28;20264;-63
2023/10/05 13:59:38;;;;;;;;;;;18.40;99.90;;;;;;5076121;28;19915;-65
2023/10/05 14:02:07;;;;;;;;;;;18.30;99.90;;;;;;5075756;28;19932;-64
2023/10/05 14:04:37;;;;;;;;;;;18.30;99.90;;;;;;5076043;28;20420;-64
2023/10/05 14:07:04;;;;;;;;;;;18.30;99.90;;;;;;5075873;28;20286;-65
2023/10/05 14:09:32;;;;;;;;;;;18.20;99.90;;;;;;5075934;28;19915;-66
2023/10/05 14:11:59;;;;;;;;;;;18.20;99.90;;;;;;5076640;28;19912;-65
2023/10/05 14:14:25;;;;;;;;;;;18.10;99.90;;;;;;5076419;28;19915;-67
2023/10/05 14:16:54;;;;;;;;;;;18.10;99.90;;;;;;5042605;28;19940;-66
2023/10/05 14:19:22;;;;;;;;;;;18.00;99.90;;;;;;5055768;28;19959;-66
2023/10/05 14:21:48;;;;;;;;;;;18.00;99.90;;;;;;5055703;28;19916;-66
2023/10/05 14:24:17;;;;;;;;;;;18.00;99.90;;;;;;5055628;28;19909;-65
2023/10/05 14:26:44;;;;;;;;;;;18.00;99.90;;;;;;5055586;28;19909;-67
2023/10/05 14:29:12;;;;;;;;;;;17.90;99.90;;;;;;5055467;28;19915;-66
2023/10/05 14:31:38;;;;;;;;;;;18.00;99.90;;;;;;5055109;28;19913;-66
2023/10/05 14:34:05;;;;;;;;;;;17.90;99.90;;;;;;5055250;28;19908;-66
2023/10/05 14:36:31;;;;;;;;;;;17.90;99.90;;;;;;5055340;28;20388;-66
2023/10/05 14:39:05;;;;;;;;;;;17.80;99.90;;;;;;5055314;28;19909;-67
2023/10/05 14:41:34;;;;;;;;;;;17.80;99.90;;;;;;5055899;28;20285;-67
2023/10/05 14:44:04;;;;;;;;;;;17.90;99.90;;;;;;5055019;28;19909;-67
2023/10/05 14:46:30;;;;;;;;;;;17.90;99.90;;;;;;5053344;28;19913;-67
2023/10/05 14:48:57;;;;;;;;;;;17.80;99.90;;;;;;5053875;28;19924;-67
2023/10/05 14:51:22;;;;;;;;;;;17.80;99.90;;;;;;5055014;28;19944;-67
2023/10/05 14:53:49;;;;;;;;;;;17.80;99.90;;;;;;5055109;28;20290;-66
2023/10/05 14:56:16;;;;;;;;;;;17.80;99.90;;;;;;5054858;28;19916;-67
2023/10/05 14:58:44;;;;;;;;;;;17.80;99.90;;;;;;5036766;28;20262;-66
2023/10/05 15:01:10;;;;;;;;;;;17.90;99.90;;;;;;5055164;28;19999;-66
2023/10/05 15:03:35;;;;;;;;;;;17.90;99.90;;;;;;5055420;28;19967;-64
2023/10/05 15:06:01;;;;;;;;;;;17.90;99.90;;;;;;5054821;28;19995;-65
2023/10/05 15:08:27;;;;;;;;;;;17.90;99.90;;;;;;5036679;28;19909;-65
2023/10/05 15:10:52;;;;;;;;;;;18.00;99.90;;;;;;5054376;28;19935;-65
2023/10/05 15:13:19;;;;;;;;;;;17.90;99.90;;;;;;5054651;28;19909;-65
2023/10/05 15:15:45;;;;;;;;;;;18.00;99.90;;;;;;5057753;28;20295;-65
2023/10/05 15:18:11;;;;;;;;;;;18.00;99.90;;;;;;5060383;28;20394;-65
2023/10/05 15:20:37;;;;;;;;;;;17.90;99.90;;;;;;5057145;28;19909;-65
2023/10/05 15:23:03;;;;;;;;;;;17.90;99.90;;;;;;5054920;28;19913;-66
2023/10/05 15:25:30;;;;;;;;;;;17.90;99.90;;;;;;5053162;28;19909;-65
2023/10/05 15:27:56;;;;;;;;;;;18.00;99.90;;;;;;5054886;28;20342;-66
2023/10/05 15:30:23;;;;;;;;;;;18.00;99.90;;;;;;5054809;28;19909;-65
2023/10/05 15:32:51;;;;;;;;;;;17.90;99.90;;;;;;5054551;28;20014;-64
2023/10/05 15:35:19;;;;;;;;;;;17.80;99.90;;;;;;5054721;28;20286;-65
2023/10/05 15:37:46;;;;;;;;;;;17.80;99.90;;;;;;5054367;28;19909;-66
2023/10/05 15:40:13;;;;;;;;;;;17.80;99.90;;;;;;5053673;28;19908;-65
2023/10/05 15:42:40;;;;;;;;;;;17.80;99.90;;;;;;5053958;28;20420;-66
2023/10/05 15:45:09;;;;;;;;;;;17.80;99.90;;;;;;5053624;28;19912;-66
2023/10/05 15:47:35;;;;;;;;;;;17.80;99.90;;;;;;5034020;28;19916;-67
2023/10/05 15:50:01;;;;;;;;;;;17.90;99.90;;;;;;5033901;28;19959;-68
2023/10/05 15:52:26;;;;;;;;;;;18.00;99.90;;;;;;5033654;28;19914;-68
2023/10/05 15:54:54;;;;;;;;;;;18.00;99.90;;;;;;5034133;28;20282;-64
2023/10/05 15:57:20;;;;;;;;;;;17.80;99.90;;;;;;5033786;28;20000;-64
2023/10/05 15:59:47;;;;;;;;;;;17.70;99.90;;;;;;5034009;28;20022;-65
2023/10/05 16:02:14;;;;;;;;;;;17.70;99.90;;;;;;5033866;28;19910;-66
2023/10/05 16:04:41;;;;;;;;;;;17.70;99.90;;;;;;5033791;28;19909;-64
2023/10/05 16:07:07;;;;;;;;;;;17.60;99.90;;;;;;5015761;28;19992;-64
2023/10/05 16:09:33;;;;;;;;;;;17.60;99.90;;;;;;5033395;28;19940;-66
2023/10/05 16:11:58;;;;;;;;;;;17.70;99.90;;;;;;5033461;28;19916;-67
2023/10/05 16:14:25;;;;;;;;;;;17.60;99.90;;;;;;5033453;28;19910;-67
2023/10/05 16:16:51;;;;;;;;;;;17.50;99.90;;;;;;5029641;28;19968;-68
2023/10/05 16:19:16;;;;;;;;;;;17.50;99.90;;;;;;5053508;28;19908;-67
2023/10/05 16:21:42;;;;;;;;;;;17.30;99.90;;;;;;5053421;28;19909;-67
2023/10/05 16:24:07;;;;;;;;;;;17.40;99.90;;;;;;5054244;28;19909;-67
2023/10/05 16:26:35;;;;;;;;;;;17.40;99.90;;;;;;5053567;28;19909;-67
2023/10/05 16:29:01;;;;;;;;;;;17.50;99.90;;;;;;5053862;28;20359;-66
2023/10/05 16:31:26;;;;;;;;;;;17.50;99.90;;;;;;5053094;28;20062;-67
2023/10/05 16:33:52;;;;;;;;;;;17.60;99.90;;;;;;5053426;28;19909;-67
2023/10/05 16:36:20;;;;;;;;;;;17.50;99.90;;;;;;5053054;28;19931;-67
2023/10/05 16:38:46;;;;;;;;;;;17.50;99.90;;;;;;5053299;28;19938;-67
2023/10/05 16:41:13;;;;;;;;;;;17.40;99.90;;;;;;5053547;28;20283;-65
2023/10/05 16:43:39;;;;;;;;;;;17.40;99.90;;;;;;5053275;28;19918;-65
2023/10/05 16:46:08;;;;;;;;;;;17.40;99.90;;;;;;5053556;28;20322;-66
2023/10/05 16:48:35;;;;;;;;;;;17.10;99.90;;;;;;5053297;28;19909;-66
2023/10/05 16:51:04;;;;;;;;;;;17.10;99.90;;;;;;5053320;28;19936;-65
2023/10/05 16:53:29;;;;;;;;;;;17.00;99.90;;;;;;5056902;28;20007;-66
2023/10/05 16:55:56;;;;;;;;;;;17.00;99.90;;;;;;5057144;28;19970;-65
2023/10/05 16:58:22;;;;;;;;;;;17.00;99.90;;;;;;5057241;28;20375;-65
2023/10/05 17:00:49;;;;;;;;;;;16.80;99.90;;;;;;5057277;28;19916;-64
2023/10/05 17:03:15;;;;;;;;;;;16.70;99.90;;;;;;5056892;28;19909;-65
2023/10/05 17:05:40;;;;;;;;;;;16.50;99.90;;;;;;5056953;28;20405;-65
2023/10/05 17:08:06;;;;;;;;;;;16.40;99.90;;;;;;5057119;28;20019;-65
2023/10/05 17:10:31;;;;;;;;;;;16.30;99.90;;;;;;5057080;28;19912;-64
2023/10/05 17:12:57;;;;;;;;;;;16.20;99.90;;;;;;5056865;28;19948;-66
2023/10/05 17:15:23;;;;;;;;;;;16.10;99.90;;;;;;5054240;28;19920;-65
2023/10/05 17:17:50;;;;;;;;;;;16.00;99.90;;;;;;5036901;28;19905;-65
2023/10/05 17:20:15;;;;;;;;;;;15.90;99.90;;;;;;5037346;28;19964;-65
2023/10/05 17:22:41;;;;;;;;;;;15.80;99.90;;;;;;5036810;28;20371;-65
2023/10/05 17:25:07;;;;;;;;;;;15.80;99.90;;;;;;5037734;28;19916;-66
2023/10/05 17:27:33;;;;;;;;;;;15.80;99.90;;;;;;5037298;28;19909;-65
2023/10/05 17:29:58;;;;;;;;;;;15.80;99.90;;;;;;5036959;28;19916;-64
2023/10/05 17:32:24;;;;;;;;;;;15.80;99.90;;;;;;5036549;28;19917;-65
2023/10/05 17:34:52;;;;;;;;;;;15.80;99.90;;;;;;5037044;28;19909;-65
2023/10/05 17:37:18;;;;;;;;;;;15.70;99.90;;;;;;5036911;28;19999;-65
2023/10/05 17:39:43;;;;;;;;;;;15.70;99.90;;;;;;5036658;28;19913;-65
2023/10/05 17:42:09;;;;;;;;;;;15.60;99.90;;;;;;5036626;28;19979;-65
2023/10/05 17:44:35;;;;;;;;;;;15.50;99.90;;;;;;5036716;28;19916;-65
2023/10/05 17:47:01;;;;;;;;;;;15.50;99.90;;;;;;5036612;28;20386;-65
2023/10/05 17:49:26;;;;;;;;;;;15.40;99.90;;;;;;5036863;28;19909;-65
2023/10/05 17:51:52;;;;;;;;;;;15.50;99.90;;;;;;5018783;28;19962;-66
2023/10/05 17:54:19;;;;;;;;;;;15.40;99.90;;;;;;5036753;28;19963;-65
2023/10/05 17:56:44;;;;;;;;;;;15.50;99.90;;;;;;5036610;28;19909;-65
2023/10/05 17:59:10;;;;;;;;;;;15.40;99.90;;;;;;5036813;28;19916;-65
2023/10/05 18:01:35;;;;;;;;;;;15.50;99.90;;;;;;5036440;28;19920;-66
2023/10/05 18:04:01;;;;;;;;;;;15.40;99.90;;;;;;5035835;28;19909;-65
2023/10/05 18:06:26;;;;;;;;;;;15.40;99.90;;;;;;5036527;28;19960;-65
2023/10/05 18:08:52;;;;;;;;;;;15.40;99.90;;;;;;5036348;28;19916;-66
2023/10/05 18:11:22;;;;;;;;;;;15.40;99.90;;;;;;5036489;28;20355;-65
2023/10/05 18:13:48;;;;;;;;;;;15.40;99.90;;;;;;5036853;28;19909;-65
2023/10/05 18:16:14;;;;;;;;;;;15.40;99.90;;;;;;5046979;28;19966;-65
2023/10/05 18:18:39;;;;;;;;;;;15.40;99.90;;;;;;5057695;28;19908;-64
2023/10/05 18:21:05;;;;;;;;;;;15.40;99.90;;;;;;5057714;28;19909;-67
2023/10/05 18:23:34;;;;;;;;;;;15.40;99.90;;;;;;5057949;28;20398;-67
2023/10/05 18:25:59;;;;;;;;;;;15.30;99.90;;;;;;5056748;28;20435;-68
2023/10/05 18:28:26;;;;;;;;;;;15.30;99.90;;;;;;5056121;28;19908;-67